sensor_id;sensor_type;location;lat;lon;timestamp;P1;durP1;ratioP1;P2;durP2;ratioP2
4432;SDS011;2229;48.708;9.706;2024-02-26T00:01:58;2.20;;;0.87;;
4432;SDS011;2229;48.708;9.706;2024-02-26T00:04:28;2.00;;;1.00;;
4432;SDS011;2229;48.708;9.706;2024-02-26T00:06:55;2.90;;;1.40;;
4432;SDS011;2229;48.708;9.706;2024-02-26T00:09:23;1.90;;;1.30;;
4432;SDS011;2229;48.708;9.706;2024-02-26T00:11:52;2.53;;;0.97;;
4432;SDS011;2229;48.708;9.706;2024-02-26T00:14:20;2.97;;;1.50;;
4432;SDS011;2229;48.708;9.706;2024-02-26T00:16:48;3.20;;;1.30;;
4432;SDS011;2229;48.708;9.706;2024-02-26T00:19:15;3.13;;;2.23;;
4432;SDS011;2229;48.708;9.706;2024-02-26T00:21:42;3.73;;;2.13;;
4432;SDS011;2229;48.708;9.706;2024-02-26T00:24:09;3.97;;;1.57;;
4432;SDS011;2229;48.708;9.706;2024-02-26T00:26:36;1.73;;;1.13;;
4432;SDS011;2229;48.708;9.706;2024-02-26T00:29:05;2.17;;;1.10;;
4432;SDS011;2229;48.708;9.706;2024-02-26T00:31:32;3.03;;;1.43;;
4432;SDS011;2229;48.708;9.706;2024-02-26T00:34:00;2.07;;;1.13;;
4432;SDS011;2229;48.708;9.706;2024-02-26T00:36:27;1.60;;;1.27;;
4432;SDS011;2229;48.708;9.706;2024-02-26T00:38:55;2.10;;;1.33;;
4432;SDS011;2229;48.708;9.706;2024-02-26T00:41:22;4.27;;;1.80;;
4432;SDS011;2229;48.708;9.706;2024-02-26T00:43:49;4.20;;;2.00;;
4432;SDS011;2229;48.708;9.706;2024-02-26T00:46:17;3.00;;;1.10;;
4432;SDS011;2229;48.708;9.706;2024-02-26T00:48:45;2.87;;;1.47;;
4432;SDS011;2229;48.708;9.706;2024-02-26T00:51:12;4.03;;;1.70;;
4432;SDS011;2229;48.708;9.706;2024-02-26T00:53:40;2.10;;;1.10;;
4432;SDS011;2229;48.708;9.706;2024-02-26T00:56:07;1.70;;;1.10;;
4432;SDS011;2229;48.708;9.706;2024-02-26T00:58:34;2.83;;;1.30;;
4432;SDS011;2229;48.708;9.706;2024-02-26T01:01:02;4.07;;;1.60;;
4432;SDS011;2229;48.708;9.706;2024-02-26T01:03:31;2.73;;;1.60;;
4432;SDS011;2229;48.708;9.706;2024-02-26T01:05:59;3.50;;;1.63;;
4432;SDS011;2229;48.708;9.706;2024-02-26T01:08:26;3.03;;;1.13;;
4432;SDS011;2229;48.708;9.706;2024-02-26T01:10:53;3.30;;;1.63;;
4432;SDS011;2229;48.708;9.706;2024-02-26T01:13:20;2.63;;;1.30;;
4432;SDS011;2229;48.708;9.706;2024-02-26T01:15:47;4.30;;;1.70;;
4432;SDS011;2229;48.708;9.706;2024-02-26T01:18:14;2.47;;;1.30;;
4432;SDS011;2229;48.708;9.706;2024-02-26T01:20:44;3.27;;;1.13;;
4432;SDS011;2229;48.708;9.706;2024-02-26T01:23:12;2.97;;;1.40;;
4432;SDS011;2229;48.708;9.706;2024-02-26T01:25:39;3.70;;;1.70;;
4432;SDS011;2229;48.708;9.706;2024-02-26T01:28:06;5.03;;;1.67;;
4432;SDS011;2229;48.708;9.706;2024-02-26T01:30:33;3.50;;;1.47;;
4432;SDS011;2229;48.708;9.706;2024-02-26T01:33:00;7.13;;;2.53;;
4432;SDS011;2229;48.708;9.706;2024-02-26T01:35:28;2.40;;;1.57;;
4432;SDS011;2229;48.708;9.706;2024-02-26T01:37:56;3.77;;;1.97;;
4432;SDS011;2229;48.708;9.706;2024-02-26T01:40:26;3.17;;;1.60;;
4432;SDS011;2229;48.708;9.706;2024-02-26T01:42:53;5.53;;;2.23;;
4432;SDS011;2229;48.708;9.706;2024-02-26T01:45:20;3.10;;;1.80;;
4432;SDS011;2229;48.708;9.706;2024-02-26T01:47:50;2.80;;;1.30;;
4432;SDS011;2229;48.708;9.706;2024-02-26T01:50:18;2.53;;;1.47;;
4432;SDS011;2229;48.708;9.706;2024-02-26T01:52:47;8.60;;;1.97;;
4432;SDS011;2229;48.708;9.706;2024-02-26T01:55:18;2.70;;;1.63;;
4432;SDS011;2229;48.708;9.706;2024-02-26T01:57:45;4.63;;;1.87;;
4432;SDS011;2229;48.708;9.706;2024-02-26T02:00:17;1.90;;;1.20;;
4432;SDS011;2229;48.708;9.706;2024-02-26T02:02:45;3.07;;;1.87;;
4432;SDS011;2229;48.708;9.706;2024-02-26T02:05:14;4.83;;;1.93;;
4432;SDS011;2229;48.708;9.706;2024-02-26T02:07:43;3.43;;;1.57;;
4432;SDS011;2229;48.708;9.706;2024-02-26T02:10:11;2.20;;;1.20;;
4432;SDS011;2229;48.708;9.706;2024-02-26T02:12:39;4.20;;;2.10;;
4432;SDS011;2229;48.708;9.706;2024-02-26T02:15:07;2.13;;;1.30;;
4432;SDS011;2229;48.708;9.706;2024-02-26T02:17:35;1.90;;;1.30;;
4432;SDS011;2229;48.708;9.706;2024-02-26T02:20:03;2.10;;;1.40;;
4432;SDS011;2229;48.708;9.706;2024-02-26T02:22:35;3.70;;;1.50;;
4432;SDS011;2229;48.708;9.706;2024-02-26T02:25:03;9.70;;;1.53;;
4432;SDS011;2229;48.708;9.706;2024-02-26T02:27:31;1.77;;;1.00;;
4432;SDS011;2229;48.708;9.706;2024-02-26T02:29:58;2.50;;;1.40;;
4432;SDS011;2229;48.708;9.706;2024-02-26T02:32:26;4.30;;;1.60;;
4432;SDS011;2229;48.708;9.706;2024-02-26T02:34:54;2.20;;;1.10;;
4432;SDS011;2229;48.708;9.706;2024-02-26T02:37:21;3.20;;;2.00;;
4432;SDS011;2229;48.708;9.706;2024-02-26T02:39:50;4.60;;;1.80;;
4432;SDS011;2229;48.708;9.706;2024-02-26T02:42:18;3.50;;;1.83;;
4432;SDS011;2229;48.708;9.706;2024-02-26T02:44:46;2.13;;;1.20;;
4432;SDS011;2229;48.708;9.706;2024-02-26T02:47:13;1.97;;;1.40;;
4432;SDS011;2229;48.708;9.706;2024-02-26T02:49:40;3.70;;;1.67;;
4432;SDS011;2229;48.708;9.706;2024-02-26T02:52:07;1.90;;;1.10;;
4432;SDS011;2229;48.708;9.706;2024-02-26T02:54:35;2.70;;;1.63;;
4432;SDS011;2229;48.708;9.706;2024-02-26T02:57:03;3.20;;;1.60;;
4432;SDS011;2229;48.708;9.706;2024-02-26T02:59:31;4.27;;;1.70;;
4432;SDS011;2229;48.708;9.706;2024-02-26T03:01:58;4.90;;;1.97;;
4432;SDS011;2229;48.708;9.706;2024-02-26T03:04:25;3.83;;;1.43;;
4432;SDS011;2229;48.708;9.706;2024-02-26T03:06:52;2.43;;;1.23;;
4432;SDS011;2229;48.708;9.706;2024-02-26T03:09:19;2.40;;;1.40;;
4432;SDS011;2229;48.708;9.706;2024-02-26T03:11:47;3.03;;;1.77;;
4432;SDS011;2229;48.708;9.706;2024-02-26T03:14:16;2.77;;;1.30;;
4432;SDS011;2229;48.708;9.706;2024-02-26T03:16:43;3.27;;;1.40;;
4432;SDS011;2229;48.708;9.706;2024-02-26T03:19:10;1.77;;;1.30;;
4432;SDS011;2229;48.708;9.706;2024-02-26T03:21:37;2.40;;;1.10;;
4432;SDS011;2229;48.708;9.706;2024-02-26T03:24:05;3.00;;;1.47;;
4432;SDS011;2229;48.708;9.706;2024-02-26T03:26:34;3.03;;;2.47;;
4432;SDS011;2229;48.708;9.706;2024-02-26T03:29:01;3.97;;;1.53;;
4432;SDS011;2229;48.708;9.706;2024-02-26T03:31:31;3.17;;;1.30;;
4432;SDS011;2229;48.708;9.706;2024-02-26T03:33:58;3.57;;;1.27;;
4432;SDS011;2229;48.708;9.706;2024-02-26T03:36:25;4.60;;;1.97;;
4432;SDS011;2229;48.708;9.706;2024-02-26T03:38:52;3.08;;;1.60;;
4432;SDS011;2229;48.708;9.706;2024-02-26T03:41:19;1.60;;;1.00;;
4432;SDS011;2229;48.708;9.706;2024-02-26T03:43:46;3.17;;;1.67;;
4432;SDS011;2229;48.708;9.706;2024-02-26T03:46:13;3.33;;;2.00;;
4432;SDS011;2229;48.708;9.706;2024-02-26T03:48:42;2.40;;;1.33;;
4432;SDS011;2229;48.708;9.706;2024-02-26T03:51:09;2.70;;;1.00;;
4432;SDS011;2229;48.708;9.706;2024-02-26T03:53:37;3.87;;;1.57;;
4432;SDS011;2229;48.708;9.706;2024-02-26T03:56:04;1.63;;;0.83;;
4432;SDS011;2229;48.708;9.706;2024-02-26T03:58:32;4.33;;;1.50;;
4432;SDS011;2229;48.708;9.706;2024-02-26T04:01:00;3.33;;;1.63;;
4432;SDS011;2229;48.708;9.706;2024-02-26T04:03:27;3.13;;;1.57;;
4432;SDS011;2229;48.708;9.706;2024-02-26T04:05:56;3.03;;;1.73;;
4432;SDS011;2229;48.708;9.706;2024-02-26T04:08:23;5.23;;;1.50;;
4432;SDS011;2229;48.708;9.706;2024-02-26T04:10:50;2.13;;;1.23;;
4432;SDS011;2229;48.708;9.706;2024-02-26T04:13:17;7.60;;;1.20;;
4432;SDS011;2229;48.708;9.706;2024-02-26T04:15:44;2.80;;;1.83;;
4432;SDS011;2229;48.708;9.706;2024-02-26T04:18:12;3.23;;;1.93;;
4432;SDS011;2229;48.708;9.706;2024-02-26T04:20:40;3.63;;;1.60;;
4432;SDS011;2229;48.708;9.706;2024-02-26T04:23:09;2.53;;;1.30;;
4432;SDS011;2229;48.708;9.706;2024-02-26T04:25:37;2.90;;;1.53;;
4432;SDS011;2229;48.708;9.706;2024-02-26T04:28:04;5.80;;;1.43;;
4432;SDS011;2229;48.708;9.706;2024-02-26T04:30:32;2.50;;;1.07;;
4432;SDS011;2229;48.708;9.706;2024-02-26T04:32:59;2.83;;;1.43;;
4432;SDS011;2229;48.708;9.706;2024-02-26T04:35:26;4.00;;;1.40;;
4432;SDS011;2229;48.708;9.706;2024-02-26T04:37:53;3.27;;;1.70;;
4432;SDS011;2229;48.708;9.706;2024-02-26T04:40:21;2.57;;;1.10;;
4432;SDS011;2229;48.708;9.706;2024-02-26T04:42:49;1.83;;;0.83;;
4432;SDS011;2229;48.708;9.706;2024-02-26T04:45:16;2.40;;;1.70;;
4432;SDS011;2229;48.708;9.706;2024-02-26T04:47:43;3.33;;;1.03;;
4432;SDS011;2229;48.708;9.706;2024-02-26T04:50:11;4.60;;;1.57;;
4432;SDS011;2229;48.708;9.706;2024-02-26T04:52:39;2.37;;;1.37;;
4432;SDS011;2229;48.708;9.706;2024-02-26T04:55:08;2.50;;;1.17;;
4432;SDS011;2229;48.708;9.706;2024-02-26T04:57:36;2.00;;;1.10;;
4432;SDS011;2229;48.708;9.706;2024-02-26T05:00:03;6.80;;;1.90;;
4432;SDS011;2229;48.708;9.706;2024-02-26T05:02:32;3.17;;;1.10;;
4432;SDS011;2229;48.708;9.706;2024-02-26T05:05:03;7.40;;;2.20;;
4432;SDS011;2229;48.708;9.706;2024-02-26T05:07:31;2.63;;;1.50;;
4432;SDS011;2229;48.708;9.706;2024-02-26T05:09:58;3.93;;;2.40;;
4432;SDS011;2229;48.708;9.706;2024-02-26T05:12:25;4.37;;;2.20;;
4432;SDS011;2229;48.708;9.706;2024-02-26T05:14:54;1.97;;;1.10;;
4432;SDS011;2229;48.708;9.706;2024-02-26T05:17:21;3.00;;;1.50;;
4432;SDS011;2229;48.708;9.706;2024-02-26T05:19:48;4.70;;;2.53;;
4432;SDS011;2229;48.708;9.706;2024-02-26T05:22:15;2.83;;;1.60;;
4432;SDS011;2229;48.708;9.706;2024-02-26T05:24:42;4.97;;;2.27;;
4432;SDS011;2229;48.708;9.706;2024-02-26T05:27:09;4.67;;;1.60;;
4432;SDS011;2229;48.708;9.706;2024-02-26T05:29:37;4.80;;;1.50;;
4432;SDS011;2229;48.708;9.706;2024-02-26T05:32:06;2.47;;;1.73;;
4432;SDS011;2229;48.708;9.706;2024-02-26T05:34:33;2.63;;;1.30;;
4432;SDS011;2229;48.708;9.706;2024-02-26T05:37:00;2.33;;;1.20;;
4432;SDS011;2229;48.708;9.706;2024-02-26T05:39:27;3.90;;;1.97;;
4432;SDS011;2229;48.708;9.706;2024-02-26T05:41:55;2.67;;;1.43;;
4432;SDS011;2229;48.708;9.706;2024-02-26T05:44:22;3.97;;;1.33;;
4432;SDS011;2229;48.708;9.706;2024-02-26T05:46:53;2.70;;;1.10;;
4432;SDS011;2229;48.708;9.706;2024-02-26T05:49:23;2.30;;;1.07;;
4432;SDS011;2229;48.708;9.706;2024-02-26T05:51:50;4.27;;;1.83;;
4432;SDS011;2229;48.708;9.706;2024-02-26T05:54:21;3.63;;;1.03;;
4432;SDS011;2229;48.708;9.706;2024-02-26T05:56:48;1.80;;;1.20;;
4432;SDS011;2229;48.708;9.706;2024-02-26T05:59:15;4.70;;;1.40;;
4432;SDS011;2229;48.708;9.706;2024-02-26T06:01:42;2.50;;;0.97;;
4432;SDS011;2229;48.708;9.706;2024-02-26T06:04:09;4.27;;;1.40;;
4432;SDS011;2229;48.708;9.706;2024-02-26T06:06:39;1.57;;;0.93;;
4432;SDS011;2229;48.708;9.706;2024-02-26T06:09:06;3.00;;;1.10;;
4432;SDS011;2229;48.708;9.706;2024-02-26T06:11:33;1.97;;;1.03;;
4432;SDS011;2229;48.708;9.706;2024-02-26T06:14:00;1.73;;;0.97;;
4432;SDS011;2229;48.708;9.706;2024-02-26T06:16:27;4.53;;;1.90;;
4432;SDS011;2229;48.708;9.706;2024-02-26T06:18:54;2.03;;;1.30;;
4432;SDS011;2229;48.708;9.706;2024-02-26T06:21:22;1.47;;;0.87;;
4432;SDS011;2229;48.708;9.706;2024-02-26T06:23:50;6.00;;;1.30;;
4432;SDS011;2229;48.708;9.706;2024-02-26T06:26:17;1.90;;;1.00;;
4432;SDS011;2229;48.708;9.706;2024-02-26T06:28:44;2.03;;;0.73;;
4432;SDS011;2229;48.708;9.706;2024-02-26T06:31:12;2.83;;;1.20;;
4432;SDS011;2229;48.708;9.706;2024-02-26T06:33:39;2.50;;;1.03;;
4432;SDS011;2229;48.708;9.706;2024-02-26T06:36:06;3.33;;;1.33;;
4432;SDS011;2229;48.708;9.706;2024-02-26T06:38:34;1.67;;;0.97;;
4432;SDS011;2229;48.708;9.706;2024-02-26T06:41:02;2.30;;;0.97;;
4432;SDS011;2229;48.708;9.706;2024-02-26T06:43:29;1.97;;;1.00;;
4432;SDS011;2229;48.708;9.706;2024-02-26T06:45:57;5.73;;;1.00;;
4432;SDS011;2229;48.708;9.706;2024-02-26T06:48:24;2.53;;;0.80;;
4432;SDS011;2229;48.708;9.706;2024-02-26T06:50:51;1.70;;;0.80;;
4432;SDS011;2229;48.708;9.706;2024-02-26T06:53:19;2.70;;;1.10;;
4432;SDS011;2229;48.708;9.706;2024-02-26T06:55:46;2.23;;;0.90;;
4432;SDS011;2229;48.708;9.706;2024-02-26T06:58:16;2.20;;;0.97;;
4432;SDS011;2229;48.708;9.706;2024-02-26T07:00:44;1.87;;;1.00;;
4432;SDS011;2229;48.708;9.706;2024-02-26T07:03:11;1.67;;;0.83;;
4432;SDS011;2229;48.708;9.706;2024-02-26T07:05:39;1.67;;;0.80;;
4432;SDS011;2229;48.708;9.706;2024-02-26T07:08:06;2.37;;;0.90;;
4432;SDS011;2229;48.708;9.706;2024-02-26T07:10:34;2.30;;;1.00;;
4432;SDS011;2229;48.708;9.706;2024-02-26T07:13:01;3.47;;;1.40;;
4432;SDS011;2229;48.708;9.706;2024-02-26T07:15:30;1.63;;;1.20;;
4432;SDS011;2229;48.708;9.706;2024-02-26T07:17:57;1.97;;;1.13;;
4432;SDS011;2229;48.708;9.706;2024-02-26T07:20:28;1.30;;;0.80;;
4432;SDS011;2229;48.708;9.706;2024-02-26T07:22:55;2.13;;;1.23;;
4432;SDS011;2229;48.708;9.706;2024-02-26T07:25:26;3.37;;;1.93;;
4432;SDS011;2229;48.708;9.706;2024-02-26T07:27:53;4.10;;;1.37;;
4432;SDS011;2229;48.708;9.706;2024-02-26T07:30:20;2.33;;;0.90;;
4432;SDS011;2229;48.708;9.706;2024-02-26T07:32:48;5.70;;;2.03;;
4432;SDS011;2229;48.708;9.706;2024-02-26T07:35:16;3.53;;;1.23;;
4432;SDS011;2229;48.708;9.706;2024-02-26T07:37:43;3.00;;;1.40;;
4432;SDS011;2229;48.708;9.706;2024-02-26T07:40:14;3.03;;;1.10;;
4432;SDS011;2229;48.708;9.706;2024-02-26T07:42:41;5.80;;;1.73;;
4432;SDS011;2229;48.708;9.706;2024-02-26T07:45:09;4.67;;;1.60;;
4432;SDS011;2229;48.708;9.706;2024-02-26T07:47:37;5.60;;;1.80;;
4432;SDS011;2229;48.708;9.706;2024-02-26T07:50:08;3.20;;;1.70;;
4432;SDS011;2229;48.708;9.706;2024-02-26T07:52:37;5.93;;;2.27;;
4432;SDS011;2229;48.708;9.706;2024-02-26T07:55:05;5.50;;;3.00;;
4432;SDS011;2229;48.708;9.706;2024-02-26T07:57:33;4.00;;;2.53;;
4432;SDS011;2229;48.708;9.706;2024-02-26T08:00:00;3.67;;;2.53;;
4432;SDS011;2229;48.708;9.706;2024-02-26T08:02:30;4.77;;;2.20;;
4432;SDS011;2229;48.708;9.706;2024-02-26T08:04:57;8.57;;;2.10;;
4432;SDS011;2229;48.708;9.706;2024-02-26T08:07:25;4.00;;;2.00;;
4432;SDS011;2229;48.708;9.706;2024-02-26T08:09:52;3.90;;;2.10;;
4432;SDS011;2229;48.708;9.706;2024-02-26T08:12:19;3.50;;;2.10;;
4432;SDS011;2229;48.708;9.706;2024-02-26T08:14:46;3.53;;;2.07;;
4432;SDS011;2229;48.708;9.706;2024-02-26T08:17:14;4.50;;;2.67;;
4432;SDS011;2229;48.708;9.706;2024-02-26T08:19:41;5.40;;;2.33;;
4432;SDS011;2229;48.708;9.706;2024-02-26T08:22:08;4.40;;;2.10;;
4432;SDS011;2229;48.708;9.706;2024-02-26T08:24:42;8.53;;;2.00;;
4432;SDS011;2229;48.708;9.706;2024-02-26T08:27:10;3.37;;;2.40;;
4432;SDS011;2229;48.708;9.706;2024-02-26T08:29:39;7.13;;;3.07;;
4432;SDS011;2229;48.708;9.706;2024-02-26T08:32:06;7.87;;;2.67;;
4432;SDS011;2229;48.708;9.706;2024-02-26T08:34:33;9.57;;;4.13;;
4432;SDS011;2229;48.708;9.706;2024-02-26T08:37:00;5.90;;;2.13;;
4432;SDS011;2229;48.708;9.706;2024-02-26T08:39:27;5.70;;;2.50;;
4432;SDS011;2229;48.708;9.706;2024-02-26T08:41:56;10.90;;;4.43;;
4432;SDS011;2229;48.708;9.706;2024-02-26T08:44:23;9.20;;;4.30;;
4432;SDS011;2229;48.708;9.706;2024-02-26T08:46:52;7.53;;;3.63;;
4432;SDS011;2229;48.708;9.706;2024-02-26T08:49:19;4.00;;;2.13;;
4432;SDS011;2229;48.708;9.706;2024-02-26T08:51:48;3.57;;;2.27;;
4432;SDS011;2229;48.708;9.706;2024-02-26T08:54:16;4.83;;;2.57;;
4432;SDS011;2229;48.708;9.706;2024-02-26T08:56:44;4.90;;;2.57;;
4432;SDS011;2229;48.708;9.706;2024-02-26T08:59:12;5.10;;;2.20;;
4432;SDS011;2229;48.708;9.706;2024-02-26T09:01:41;3.73;;;2.17;;
4432;SDS011;2229;48.708;9.706;2024-02-26T09:04:08;5.23;;;2.67;;
4432;SDS011;2229;48.708;9.706;2024-02-26T09:06:35;4.57;;;2.53;;
4432;SDS011;2229;48.708;9.706;2024-02-26T09:09:02;5.03;;;2.50;;
4432;SDS011;2229;48.708;9.706;2024-02-26T09:11:29;6.00;;;2.80;;
4432;SDS011;2229;48.708;9.706;2024-02-26T09:13:57;6.30;;;2.70;;
4432;SDS011;2229;48.708;9.706;2024-02-26T09:16:25;3.27;;;1.47;;
4432;SDS011;2229;48.708;9.706;2024-02-26T09:18:52;4.20;;;2.40;;
4432;SDS011;2229;48.708;9.706;2024-02-26T09:21:19;4.63;;;2.10;;
4432;SDS011;2229;48.708;9.706;2024-02-26T09:23:49;4.50;;;2.03;;
4432;SDS011;2229;48.708;9.706;2024-02-26T09:26:16;9.00;;;2.70;;
4432;SDS011;2229;48.708;9.706;2024-02-26T09:28:43;3.17;;;2.00;;
4432;SDS011;2229;48.708;9.706;2024-02-26T09:31:11;6.00;;;2.30;;
4432;SDS011;2229;48.708;9.706;2024-02-26T09:33:42;6.80;;;2.00;;
4432;SDS011;2229;48.708;9.706;2024-02-26T09:36:10;3.23;;;1.77;;
4432;SDS011;2229;48.708;9.706;2024-02-26T09:38:39;3.40;;;1.80;;
4432;SDS011;2229;48.708;9.706;2024-02-26T09:41:06;2.27;;;1.17;;
4432;SDS011;2229;48.708;9.706;2024-02-26T09:43:34;4.37;;;1.63;;
4432;SDS011;2229;48.708;9.706;2024-02-26T09:46:03;4.50;;;3.13;;
4432;SDS011;2229;48.708;9.706;2024-02-26T09:48:31;4.70;;;2.13;;
4432;SDS011;2229;48.708;9.706;2024-02-26T09:51:02;4.00;;;1.80;;
4432;SDS011;2229;48.708;9.706;2024-02-26T09:53:29;5.23;;;2.30;;
4432;SDS011;2229;48.708;9.706;2024-02-26T09:55:58;6.13;;;2.13;;
4432;SDS011;2229;48.708;9.706;2024-02-26T09:58:26;3.93;;;2.20;;
4432;SDS011;2229;48.708;9.706;2024-02-26T10:00:56;3.53;;;1.90;;
4432;SDS011;2229;48.708;9.706;2024-02-26T10:03:25;3.13;;;1.33;;
4432;SDS011;2229;48.708;9.706;2024-02-26T10:05:57;7.33;;;1.90;;
4432;SDS011;2229;48.708;9.706;2024-02-26T10:08:26;3.87;;;1.70;;
4432;SDS011;2229;48.708;9.706;2024-02-26T10:10:53;5.47;;;2.60;;
4432;SDS011;2229;48.708;9.706;2024-02-26T10:13:21;3.63;;;1.43;;
4432;SDS011;2229;48.708;9.706;2024-02-26T10:15:48;2.73;;;1.60;;
4432;SDS011;2229;48.708;9.706;2024-02-26T10:18:16;3.97;;;1.60;;
4432;SDS011;2229;48.708;9.706;2024-02-26T10:20:43;3.17;;;1.27;;
4432;SDS011;2229;48.708;9.706;2024-02-26T10:23:27;2.83;;;1.53;;
4432;SDS011;2229;48.708;9.706;2024-02-26T10:25:54;2.90;;;1.23;;
4432;SDS011;2229;48.708;9.706;2024-02-26T10:28:22;2.43;;;1.00;;
4432;SDS011;2229;48.708;9.706;2024-02-26T10:30:50;2.03;;;0.90;;
4432;SDS011;2229;48.708;9.706;2024-02-26T10:33:18;2.40;;;1.47;;
4432;SDS011;2229;48.708;9.706;2024-02-26T10:35:45;2.73;;;1.13;;
4432;SDS011;2229;48.708;9.706;2024-02-26T10:38:12;2.63;;;2.13;;
4432;SDS011;2229;48.708;9.706;2024-02-26T10:40:44;3.20;;;1.60;;
4432;SDS011;2229;48.708;9.706;2024-02-26T10:43:11;2.93;;;1.73;;
4432;SDS011;2229;48.708;9.706;2024-02-26T10:45:42;2.67;;;1.73;;
4432;SDS011;2229;48.708;9.706;2024-02-26T10:48:10;2.97;;;1.50;;
4432;SDS011;2229;48.708;9.706;2024-02-26T10:50:40;2.27;;;0.90;;
4432;SDS011;2229;48.708;9.706;2024-02-26T10:53:11;1.80;;;1.17;;
4432;SDS011;2229;48.708;9.706;2024-02-26T10:55:45;2.30;;;1.30;;
4432;SDS011;2229;48.708;9.706;2024-02-26T10:58:15;2.83;;;1.73;;
4432;SDS011;2229;48.708;9.706;2024-02-26T11:00:43;2.00;;;1.33;;
4432;SDS011;2229;48.708;9.706;2024-02-26T11:03:12;3.47;;;1.40;;
4432;SDS011;2229;48.708;9.706;2024-02-26T11:05:42;2.20;;;1.30;;
4432;SDS011;2229;48.708;9.706;2024-02-26T11:08:11;2.50;;;1.33;;
4432;SDS011;2229;48.708;9.706;2024-02-26T11:10:38;3.70;;;1.60;;
4432;SDS011;2229;48.708;9.706;2024-02-26T11:13:09;3.73;;;1.63;;
4432;SDS011;2229;48.708;9.706;2024-02-26T11:15:40;4.80;;;1.77;;
4432;SDS011;2229;48.708;9.706;2024-02-26T11:18:11;2.33;;;1.30;;
4432;SDS011;2229;48.708;9.706;2024-02-26T11:20:40;2.70;;;1.53;;
4432;SDS011;2229;48.708;9.706;2024-02-26T11:23:19;3.90;;;1.50;;
4432;SDS011;2229;48.708;9.706;2024-02-26T11:25:46;5.53;;;1.57;;
4432;SDS011;2229;48.708;9.706;2024-02-26T11:28:16;3.07;;;1.40;;
4432;SDS011;2229;48.708;9.706;2024-02-26T11:30:46;4.50;;;1.53;;
4432;SDS011;2229;48.708;9.706;2024-02-26T11:33:16;2.83;;;1.57;;
4432;SDS011;2229;48.708;9.706;2024-02-26T11:35:46;2.63;;;1.17;;
4432;SDS011;2229;48.708;9.706;2024-02-26T11:38:16;2.27;;;0.83;;
4432;SDS011;2229;48.708;9.706;2024-02-26T11:40:47;3.27;;;1.40;;
4432;SDS011;2229;48.708;9.706;2024-02-26T11:43:16;2.73;;;1.20;;
4432;SDS011;2229;48.708;9.706;2024-02-26T11:45:52;2.83;;;1.70;;
4432;SDS011;2229;48.708;9.706;2024-02-26T11:48:22;2.97;;;1.50;;
4432;SDS011;2229;48.708;9.706;2024-02-26T11:50:59;2.77;;;1.50;;
4432;SDS011;2229;48.708;9.706;2024-02-26T11:53:27;3.10;;;1.20;;
4432;SDS011;2229;48.708;9.706;2024-02-26T11:56:12;7.13;;;1.77;;
4432;SDS011;2229;48.708;9.706;2024-02-26T11:58:41;5.10;;;1.90;;
4432;SDS011;2229;48.708;9.706;2024-02-26T12:04:11;4.60;;;2.00;;
4432;SDS011;2229;48.708;9.706;2024-02-26T12:06:46;3.10;;;1.57;;
4432;SDS011;2229;48.708;9.706;2024-02-26T12:09:40;3.67;;;2.00;;
4432;SDS011;2229;48.708;9.706;2024-02-26T12:12:31;3.83;;;1.80;;
4432;SDS011;2229;48.708;9.706;2024-02-26T12:15:12;1.90;;;1.20;;
4432;SDS011;2229;48.708;9.706;2024-02-26T12:18:01;2.53;;;1.23;;
4432;SDS011;2229;48.708;9.706;2024-02-26T12:24:27;1.87;;;0.70;;
4432;SDS011;2229;48.708;9.706;2024-02-26T12:26:54;2.30;;;1.00;;
4432;SDS011;2229;48.708;9.706;2024-02-26T12:29:21;2.80;;;1.00;;
4432;SDS011;2229;48.708;9.706;2024-02-26T12:31:49;2.10;;;0.70;;
4432;SDS011;2229;48.708;9.706;2024-02-26T12:34:17;2.50;;;0.97;;
4432;SDS011;2229;48.708;9.706;2024-02-26T12:36:45;3.63;;;1.30;;
4432;SDS011;2229;48.708;9.706;2024-02-26T12:39:12;2.80;;;1.20;;
4432;SDS011;2229;48.708;9.706;2024-02-26T12:41:39;1.80;;;1.03;;
4432;SDS011;2229;48.708;9.706;2024-02-26T12:44:11;3.57;;;1.47;;
4432;SDS011;2229;48.708;9.706;2024-02-26T12:46:39;2.10;;;1.10;;
4432;SDS011;2229;48.708;9.706;2024-02-26T12:49:08;2.30;;;1.27;;
4432;SDS011;2229;48.708;9.706;2024-02-26T12:51:42;2.40;;;1.90;;
4432;SDS011;2229;48.708;9.706;2024-02-26T12:54:10;2.27;;;1.20;;
4432;SDS011;2229;48.708;9.706;2024-02-26T12:56:38;4.80;;;2.93;;
4432;SDS011;2229;48.708;9.706;2024-02-26T12:59:05;4.13;;;2.50;;
4432;SDS011;2229;48.708;9.706;2024-02-26T13:01:32;5.30;;;2.30;;
4432;SDS011;2229;48.708;9.706;2024-02-26T13:03:59;5.77;;;2.17;;
4432;SDS011;2229;48.708;9.706;2024-02-26T13:06:33;4.77;;;2.10;;
4432;SDS011;2229;48.708;9.706;2024-02-26T13:09:01;4.20;;;1.97;;
4432;SDS011;2229;48.708;9.706;2024-02-26T13:11:29;6.10;;;2.00;;
4432;SDS011;2229;48.708;9.706;2024-02-26T13:13:57;4.07;;;1.93;;
4432;SDS011;2229;48.708;9.706;2024-02-26T13:16:24;3.10;;;2.00;;
4432;SDS011;2229;48.708;9.706;2024-02-26T13:18:53;6.40;;;2.70;;
4432;SDS011;2229;48.708;9.706;2024-02-26T13:21:20;2.60;;;1.37;;
4432;SDS011;2229;48.708;9.706;2024-02-26T13:23:51;2.20;;;1.40;;
4432;SDS011;2229;48.708;9.706;2024-02-26T13:26:21;1.83;;;1.00;;
4432;SDS011;2229;48.708;9.706;2024-02-26T13:28:59;2.60;;;1.00;;
4432;SDS011;2229;48.708;9.706;2024-02-26T13:31:26;3.10;;;1.10;;
4432;SDS011;2229;48.708;9.706;2024-02-26T13:33:54;2.27;;;1.10;;
4432;SDS011;2229;48.708;9.706;2024-02-26T13:36:21;3.73;;;1.20;;
4432;SDS011;2229;48.708;9.706;2024-02-26T13:38:52;2.53;;;1.30;;
4432;SDS011;2229;48.708;9.706;2024-02-26T13:41:20;2.60;;;1.50;;
4432;SDS011;2229;48.708;9.706;2024-02-26T13:43:48;3.03;;;1.23;;
4432;SDS011;2229;48.708;9.706;2024-02-26T13:46:16;3.50;;;1.40;;
4432;SDS011;2229;48.708;9.706;2024-02-26T13:48:43;3.13;;;1.40;;
4432;SDS011;2229;48.708;9.706;2024-02-26T13:51:10;2.40;;;1.00;;
4432;SDS011;2229;48.708;9.706;2024-02-26T13:53:37;2.60;;;1.20;;
4432;SDS011;2229;48.708;9.706;2024-02-26T13:56:06;2.80;;;1.40;;
4432;SDS011;2229;48.708;9.706;2024-02-26T13:58:34;3.60;;;1.70;;
4432;SDS011;2229;48.708;9.706;2024-02-26T14:01:01;4.90;;;2.20;;
4432;SDS011;2229;48.708;9.706;2024-02-26T14:03:29;3.57;;;1.60;;
4432;SDS011;2229;48.708;9.706;2024-02-26T14:05:56;2.97;;;1.50;;
4432;SDS011;2229;48.708;9.706;2024-02-26T14:08:24;2.70;;;1.50;;
4432;SDS011;2229;48.708;9.706;2024-02-26T14:10:51;4.33;;;1.47;;
4432;SDS011;2229;48.708;9.706;2024-02-26T14:13:19;2.10;;;0.93;;
4432;SDS011;2229;48.708;9.706;2024-02-26T14:15:47;3.97;;;1.30;;
4432;SDS011;2229;48.708;9.706;2024-02-26T14:18:15;2.90;;;1.50;;
4432;SDS011;2229;48.708;9.706;2024-02-26T14:20:42;5.00;;;1.60;;
4432;SDS011;2229;48.708;9.706;2024-02-26T14:23:10;3.40;;;1.20;;
4432;SDS011;2229;48.708;9.706;2024-02-26T14:25:37;1.70;;;0.97;;
4432;SDS011;2229;48.708;9.706;2024-02-26T14:28:04;4.10;;;1.57;;
4432;SDS011;2229;48.708;9.706;2024-02-26T14:30:33;2.57;;;1.10;;
4432;SDS011;2229;48.708;9.706;2024-02-26T14:33:00;5.43;;;1.60;;
4432;SDS011;2229;48.708;9.706;2024-02-26T14:35:27;3.30;;;1.77;;
4432;SDS011;2229;48.708;9.706;2024-02-26T14:37:55;2.90;;;1.40;;
4432;SDS011;2229;48.708;9.706;2024-02-26T14:40:26;3.80;;;1.50;;
4432;SDS011;2229;48.708;9.706;2024-02-26T14:42:53;2.63;;;1.40;;
4432;SDS011;2229;48.708;9.706;2024-02-26T14:45:20;4.37;;;1.70;;
4432;SDS011;2229;48.708;9.706;2024-02-26T14:47:48;4.07;;;2.03;;
4432;SDS011;2229;48.708;9.706;2024-02-26T14:50:16;5.20;;;1.87;;
4432;SDS011;2229;48.708;9.706;2024-02-26T14:52:43;3.27;;;1.40;;
4432;SDS011;2229;48.708;9.706;2024-02-26T14:55:10;4.73;;;2.57;;
4432;SDS011;2229;48.708;9.706;2024-02-26T14:57:37;5.33;;;1.90;;
4432;SDS011;2229;48.708;9.706;2024-02-26T15:00:06;4.10;;;2.40;;
4432;SDS011;2229;48.708;9.706;2024-02-26T15:02:35;3.50;;;1.53;;
4432;SDS011;2229;48.708;9.706;2024-02-26T15:05:04;3.23;;;2.00;;
4432;SDS011;2229;48.708;9.706;2024-02-26T15:07:33;3.30;;;1.73;;
4432;SDS011;2229;48.708;9.706;2024-02-26T15:10:01;4.00;;;2.00;;
4432;SDS011;2229;48.708;9.706;2024-02-26T15:12:29;6.40;;;2.30;;
4432;SDS011;2229;48.708;9.706;2024-02-26T15:14:58;5.70;;;2.03;;
4432;SDS011;2229;48.708;9.706;2024-02-26T15:17:26;3.00;;;1.60;;
4432;SDS011;2229;48.708;9.706;2024-02-26T15:19:54;5.87;;;2.60;;
4432;SDS011;2229;48.708;9.706;2024-02-26T15:22:23;3.00;;;1.77;;
4432;SDS011;2229;48.708;9.706;2024-02-26T15:24:51;6.77;;;1.80;;
4432;SDS011;2229;48.708;9.706;2024-02-26T15:27:18;3.73;;;2.00;;
4432;SDS011;2229;48.708;9.706;2024-02-26T15:29:45;8.57;;;2.73;;